sensor_id;sensor_type;location;lat;lon;timestamp;P1;durP1;ratioP1;P2;durP2;ratioP2
16906;SDS011;8570;52.380;4.654;2023-12-29T00:01:49;42.10;;;7.70;;
16906;SDS011;8570;52.380;4.654;2023-12-29T00:06:55;37.47;;;7.05;;
16906;SDS011;8570;52.380;4.654;2023-12-29T00:12:00;43.38;;;7.40;;
16906;SDS011;8570;52.380;4.654;2023-12-29T00:17:06;36.75;;;7.63;;
16906;SDS011;8570;52.380;4.654;2023-12-29T00:33:41;30.02;;;5.93;;
16906;SDS011;8570;52.380;4.654;2023-12-29T00:39:22;33.72;;;5.95;;
16906;SDS011;8570;52.380;4.654;2023-12-29T00:44:28;33.13;;;6.22;;
16906;SDS011;8570;52.380;4.654;2023-12-29T00:55:54;34.90;;;6.47;;
16906;SDS011;8570;52.380;4.654;2023-12-29T01:01:05;26.38;;;6.15;;
16906;SDS011;8570;52.380;4.654;2023-12-29T01:06:46;35.42;;;5.72;;
16906;SDS011;8570;52.380;4.654;2023-12-29T01:12:14;34.88;;;6.30;;
16906;SDS011;8570;52.380;4.654;2023-12-29T01:17:19;30.60;;;6.35;;
16906;SDS011;8570;52.380;4.654;2023-12-29T01:22:27;25.98;;;5.20;;
16906;SDS011;8570;52.380;4.654;2023-12-29T01:27:54;23.60;;;5.18;;
16906;SDS011;8570;52.380;4.654;2023-12-29T01:33:36;25.98;;;5.30;;
16906;SDS011;8570;52.380;4.654;2023-12-29T01:38:50;32.20;;;6.07;;
16906;SDS011;8570;52.380;4.654;2023-12-29T01:50:00;33.58;;;6.05;;
16906;SDS011;8570;52.380;4.654;2023-12-29T02:06:14;28.40;;;4.90;;
16906;SDS011;8570;52.380;4.654;2023-12-29T02:11:29;26.40;;;5.68;;
16906;SDS011;8570;52.380;4.654;2023-12-29T02:16:50;27.20;;;6.20;;
16906;SDS011;8570;52.380;4.654;2023-12-29T02:21:59;36.45;;;5.97;;
16906;SDS011;8570;52.380;4.654;2023-12-29T02:27:28;28.60;;;6.25;;
16906;SDS011;8570;52.380;4.654;2023-12-29T02:32:53;41.22;;;6.78;;
16906;SDS011;8570;52.380;4.654;2023-12-29T02:38:23;37.92;;;6.82;;
16906;SDS011;8570;52.380;4.654;2023-12-29T02:55:10;36.55;;;6.32;;
16906;SDS011;8570;52.380;4.654;2023-12-29T03:34:46;29.60;;;6.30;;
16906;SDS011;8570;52.380;4.654;2023-12-29T03:40:25;28.58;;;5.53;;
16906;SDS011;8570;52.380;4.654;2023-12-29T03:45:38;32.63;;;5.35;;
16906;SDS011;8570;52.380;4.654;2023-12-29T03:50:59;27.38;;;5.00;;
16906;SDS011;8570;52.380;4.654;2023-12-29T03:56:45;33.88;;;5.80;;
16906;SDS011;8570;52.380;4.654;2023-12-29T04:01:56;27.92;;;6.05;;
16906;SDS011;8570;52.380;4.654;2023-12-29T04:07:34;31.23;;;5.68;;
16906;SDS011;8570;52.380;4.654;2023-12-29T04:19:01;28.95;;;5.57;;
16906;SDS011;8570;52.380;4.654;2023-12-29T04:24:30;32.35;;;5.90;;
16906;SDS011;8570;52.380;4.654;2023-12-29T04:30:41;33.65;;;5.70;;
16906;SDS011;8570;52.380;4.654;2023-12-29T04:36:09;39.03;;;5.82;;
16906;SDS011;8570;52.380;4.654;2023-12-29T04:52:41;32.90;;;5.85;;
16906;SDS011;8570;52.380;4.654;2023-12-29T04:57:59;31.35;;;5.95;;
16906;SDS011;8570;52.380;4.654;2023-12-29T05:15:15;32.38;;;6.32;;
16906;SDS011;8570;52.380;4.654;2023-12-29T05:20:41;44.13;;;7.20;;
16906;SDS011;8570;52.380;4.654;2023-12-29T05:25:46;30.35;;;5.57;;
16906;SDS011;8570;52.380;4.654;2023-12-29T05:31:24;30.65;;;6.75;;
16906;SDS011;8570;52.380;4.654;2023-12-29T05:38:00;45.90;;;7.43;;
16906;SDS011;8570;52.380;4.654;2023-12-29T05:42:41;36.85;;;6.22;;
16906;SDS011;8570;52.380;4.654;2023-12-29T05:48:03;42.15;;;7.05;;
16906;SDS011;8570;52.380;4.654;2023-12-29T06:53:34;34.85;;;6.72;;
16906;SDS011;8570;52.380;4.654;2023-12-29T06:58:58;36.92;;;6.55;;
16906;SDS011;8570;52.380;4.654;2023-12-29T07:54:27;33.30;;;6.80;;
16906;SDS011;8570;52.380;4.654;2023-12-29T08:00:11;39.33;;;7.28;;
16906;SDS011;8570;52.380;4.654;2023-12-29T08:07:00;39.30;;;7.07;;
16906;SDS011;8570;52.380;4.654;2023-12-29T08:23:19;35.88;;;7.13;;
16906;SDS011;8570;52.380;4.654;2023-12-29T08:28:28;36.03;;;6.32;;
16906;SDS011;8570;52.380;4.654;2023-12-29T08:33:30;31.33;;;5.40;;
16906;SDS011;8570;52.380;4.654;2023-12-29T08:38:33;38.50;;;5.28;;
16906;SDS011;8570;52.380;4.654;2023-12-29T08:43:35;28.67;;;5.38;;
16906;SDS011;8570;52.380;4.654;2023-12-29T08:48:37;23.73;;;4.25;;
16906;SDS011;8570;52.380;4.654;2023-12-29T08:53:40;25.52;;;4.55;;
16906;SDS011;8570;52.380;4.654;2023-12-29T08:58:42;28.23;;;4.82;;
16906;SDS011;8570;52.380;4.654;2023-12-29T09:03:44;24.58;;;5.10;;
16906;SDS011;8570;52.380;4.654;2023-12-29T09:08:47;27.40;;;4.43;;
16906;SDS011;8570;52.380;4.654;2023-12-29T09:13:49;27.80;;;4.47;;
16906;SDS011;8570;52.380;4.654;2023-12-29T09:18:51;29.27;;;4.85;;
16906;SDS011;8570;52.380;4.654;2023-12-29T09:23:54;27.25;;;4.72;;
16906;SDS011;8570;52.380;4.654;2023-12-29T09:28:56;25.60;;;4.57;;
16906;SDS011;8570;52.380;4.654;2023-12-29T09:33:57;32.35;;;6.22;;
16906;SDS011;8570;52.380;4.654;2023-12-29T09:39:01;28.80;;;5.75;;
16906;SDS011;8570;52.380;4.654;2023-12-29T09:44:03;34.97;;;5.82;;
16906;SDS011;8570;52.380;4.654;2023-12-29T09:49:08;33.35;;;5.53;;
16906;SDS011;8570;52.380;4.654;2023-12-29T09:54:11;32.72;;;5.82;;
16906;SDS011;8570;52.380;4.654;2023-12-29T09:59:14;35.83;;;5.65;;
16906;SDS011;8570;52.380;4.654;2023-12-29T10:04:18;29.30;;;5.15;;
16906;SDS011;8570;52.380;4.654;2023-12-29T10:09:21;38.28;;;5.55;;
16906;SDS011;8570;52.380;4.654;2023-12-29T10:14:24;29.58;;;5.85;;
16906;SDS011;8570;52.380;4.654;2023-12-29T10:19:34;34.20;;;6.00;;
16906;SDS011;8570;52.380;4.654;2023-12-29T10:24:42;26.92;;;5.45;;
16906;SDS011;8570;52.380;4.654;2023-12-29T10:29:46;26.15;;;4.30;;
16906;SDS011;8570;52.380;4.654;2023-12-29T10:34:48;20.30;;;4.22;;
16906;SDS011;8570;52.380;4.654;2023-12-29T10:39:56;24.90;;;4.18;;
16906;SDS011;8570;52.380;4.654;2023-12-29T10:45:04;26.20;;;4.60;;
16906;SDS011;8570;52.380;4.654;2023-12-29T10:50:07;19.80;;;4.05;;
16906;SDS011;8570;52.380;4.654;2023-12-29T10:55:11;25.23;;;4.43;;
16906;SDS011;8570;52.380;4.654;2023-12-29T11:00:13;22.67;;;3.83;;
16906;SDS011;8570;52.380;4.654;2023-12-29T11:05:16;19.38;;;4.80;;
16906;SDS011;8570;52.380;4.654;2023-12-29T11:10:27;25.73;;;4.03;;
16906;SDS011;8570;52.380;4.654;2023-12-29T11:15:31;23.60;;;3.33;;
16906;SDS011;8570;52.380;4.654;2023-12-29T11:20:33;24.50;;;4.38;;
16906;SDS011;8570;52.380;4.654;2023-12-29T11:25:38;20.13;;;3.78;;
16906;SDS011;8570;52.380;4.654;2023-12-29T11:30:40;31.23;;;5.07;;
16906;SDS011;8570;52.380;4.654;2023-12-29T11:35:43;29.08;;;4.80;;
16906;SDS011;8570;52.380;4.654;2023-12-29T11:40:52;19.02;;;3.83;;
16906;SDS011;8570;52.380;4.654;2023-12-29T11:46:03;15.75;;;3.35;;
16906;SDS011;8570;52.380;4.654;2023-12-29T11:51:15;21.17;;;3.72;;
16906;SDS011;8570;52.380;4.654;2023-12-29T11:56:35;19.60;;;4.00;;
16906;SDS011;8570;52.380;4.654;2023-12-29T12:01:38;18.65;;;3.95;;
16906;SDS011;8570;52.380;4.654;2023-12-29T12:06:40;21.13;;;3.75;;
16906;SDS011;8570;52.380;4.654;2023-12-29T12:11:43;18.33;;;3.90;;
16906;SDS011;8570;52.380;4.654;2023-12-29T12:16:49;20.60;;;4.45;;
16906;SDS011;8570;52.380;4.654;2023-12-29T12:21:53;18.33;;;3.45;;
16906;SDS011;8570;52.380;4.654;2023-12-29T12:26:57;15.23;;;3.50;;
16906;SDS011;8570;52.380;4.654;2023-12-29T12:32:00;16.98;;;3.47;;
16906;SDS011;8570;52.380;4.654;2023-12-29T12:37:02;15.55;;;3.35;;
16906;SDS011;8570;52.380;4.654;2023-12-29T12:42:05;13.15;;;2.90;;
16906;SDS011;8570;52.380;4.654;2023-12-29T12:47:08;15.40;;;3.65;;
16906;SDS011;8570;52.380;4.654;2023-12-29T12:52:15;26.02;;;4.25;;
16906;SDS011;8570;52.380;4.654;2023-12-29T12:57:19;23.63;;;4.22;;
16906;SDS011;8570;52.380;4.654;2023-12-29T13:02:21;21.80;;;4.57;;
16906;SDS011;8570;52.380;4.654;2023-12-29T13:07:24;26.27;;;4.53;;
16906;SDS011;8570;52.380;4.654;2023-12-29T13:12:28;27.60;;;4.55;;
16906;SDS011;8570;52.380;4.654;2023-12-29T13:17:30;28.20;;;3.88;;
16906;SDS011;8570;52.380;4.654;2023-12-29T13:22:31;29.38;;;4.05;;
16906;SDS011;8570;52.380;4.654;2023-12-29T13:27:35;25.05;;;4.60;;
16906;SDS011;8570;52.380;4.654;2023-12-29T13:32:39;23.00;;;4.38;;
16906;SDS011;8570;52.380;4.654;2023-12-29T13:37:43;23.35;;;4.45;;
16906;SDS011;8570;52.380;4.654;2023-12-29T13:42:51;29.48;;;4.22;;
16906;SDS011;8570;52.380;4.654;2023-12-29T13:48:00;27.35;;;5.50;;
16906;SDS011;8570;52.380;4.654;2023-12-29T13:53:03;24.98;;;4.80;;
16906;SDS011;8570;52.380;4.654;2023-12-29T13:58:09;27.65;;;4.40;;
16906;SDS011;8570;52.380;4.654;2023-12-29T14:03:14;20.80;;;3.67;;
16906;SDS011;8570;52.380;4.654;2023-12-29T14:08:24;30.25;;;4.72;;
16906;SDS011;8570;52.380;4.654;2023-12-29T14:13:30;19.60;;;3.63;;
16906;SDS011;8570;52.380;4.654;2023-12-29T14:18:49;21.40;;;4.60;;
16906;SDS011;8570;52.380;4.654;2023-12-29T14:24:00;16.35;;;3.17;;
16906;SDS011;8570;52.380;4.654;2023-12-29T14:29:09;12.55;;;2.80;;
16906;SDS011;8570;52.380;4.654;2023-12-29T14:34:12;8.70;;;2.45;;
16906;SDS011;8570;52.380;4.654;2023-12-29T14:39:17;10.05;;;1.85;;
16906;SDS011;8570;52.380;4.654;2023-12-29T14:44:20;9.20;;;2.25;;
16906;SDS011;8570;52.380;4.654;2023-12-29T14:49:24;9.10;;;2.13;;
16906;SDS011;8570;52.380;4.654;2023-12-29T14:54:26;12.77;;;2.17;;
16906;SDS011;8570;52.380;4.654;2023-12-29T14:59:29;8.65;;;2.63;;
16906;SDS011;8570;52.380;4.654;2023-12-29T15:04:31;10.98;;;2.40;;
16906;SDS011;8570;52.380;4.654;2023-12-29T15:09:33;8.27;;;2.30;;
16906;SDS011;8570;52.380;4.654;2023-12-29T15:14:37;10.02;;;2.63;;
16906;SDS011;8570;52.380;4.654;2023-12-29T15:19:39;10.38;;;2.20;;
16906;SDS011;8570;52.380;4.654;2023-12-29T15:24:40;8.47;;;1.80;;
16906;SDS011;8570;52.380;4.654;2023-12-29T15:29:44;8.57;;;2.57;;
16906;SDS011;8570;52.380;4.654;2023-12-29T15:34:45;8.27;;;2.17;;
16906;SDS011;8570;52.380;4.654;2023-12-29T15:39:47;10.03;;;2.40;;
16906;SDS011;8570;52.380;4.654;2023-12-29T15:44:51;8.00;;;1.57;;
16906;SDS011;8570;52.380;4.654;2023-12-29T15:49:53;8.97;;;2.20;;
16906;SDS011;8570;52.380;4.654;2023-12-29T15:54:55;6.13;;;1.70;;
16906;SDS011;8570;52.380;4.654;2023-12-29T15:59:58;8.23;;;1.93;;
16906;SDS011;8570;52.380;4.654;2023-12-29T16:05:00;6.17;;;1.67;;
16906;SDS011;8570;52.380;4.654;2023-12-29T16:10:07;9.90;;;1.97;;
16906;SDS011;8570;52.380;4.654;2023-12-29T16:15:11;9.43;;;1.90;;
16906;SDS011;8570;52.380;4.654;2023-12-29T16:20:13;8.43;;;2.00;;
16906;SDS011;8570;52.380;4.654;2023-12-29T16:25:14;9.73;;;1.97;;
16906;SDS011;8570;52.380;4.654;2023-12-29T16:30:18;10.80;;;2.27;;
16906;SDS011;8570;52.380;4.654;2023-12-29T16:35:20;14.00;;;2.50;;
16906;SDS011;8570;52.380;4.654;2023-12-29T16:40:23;13.90;;;4.00;;
16906;SDS011;8570;52.380;4.654;2023-12-29T16:45:26;14.07;;;4.37;;
16906;SDS011;8570;52.380;4.654;2023-12-29T16:50:28;16.00;;;3.67;;
16906;SDS011;8570;52.380;4.654;2023-12-29T16:55:30;11.53;;;3.20;;
16906;SDS011;8570;52.380;4.654;2023-12-29T17:00:33;11.80;;;3.10;;
16906;SDS011;8570;52.380;4.654;2023-12-29T17:05:35;12.60;;;3.97;;
16906;SDS011;8570;52.380;4.654;2023-12-29T17:10:37;10.87;;;3.73;;
16906;SDS011;8570;52.380;4.654;2023-12-29T17:15:40;13.67;;;3.90;;
16906;SDS011;8570;52.380;4.654;2023-12-29T17:20:42;13.50;;;3.10;;
16906;SDS011;8570;52.380;4.654;2023-12-29T17:25:44;12.33;;;4.23;;
16906;SDS011;8570;52.380;4.654;2023-12-29T17:30:47;11.73;;;3.20;;
16906;SDS011;8570;52.380;4.654;2023-12-29T17:35:49;11.37;;;3.40;;
16906;SDS011;8570;52.380;4.654;2023-12-29T17:40:53;15.97;;;3.47;;
16906;SDS011;8570;52.380;4.654;2023-12-29T17:45:56;11.77;;;4.27;;
16906;SDS011;8570;52.380;4.654;2023-12-29T17:50:58;11.63;;;4.03;;
16906;SDS011;8570;52.380;4.654;2023-12-29T17:56:00;10.30;;;3.13;;
16906;SDS011;8570;52.380;4.654;2023-12-29T18:01:03;12.50;;;3.30;;
16906;SDS011;8570;52.380;4.654;2023-12-29T18:06:06;14.20;;;5.50;;
16906;SDS011;8570;52.380;4.654;2023-12-29T18:11:11;10.87;;;3.50;;
16906;SDS011;8570;52.380;4.654;2023-12-29T18:16:14;22.03;;;3.67;;
16906;SDS011;8570;52.380;4.654;2023-12-29T18:21:16;18.90;;;4.33;;
16906;SDS011;8570;52.380;4.654;2023-12-29T18:26:18;14.80;;;4.50;;
16906;SDS011;8570;52.380;4.654;2023-12-29T18:31:22;17.07;;;4.77;;
16906;SDS011;8570;52.380;4.654;2023-12-29T18:36:24;20.47;;;5.60;;
16906;SDS011;8570;52.380;4.654;2023-12-29T18:41:26;16.90;;;3.90;;
16906;SDS011;8570;52.380;4.654;2023-12-29T18:46:29;8.93;;;3.47;;
16906;SDS011;8570;52.380;4.654;2023-12-29T18:51:31;13.43;;;3.20;;
16906;SDS011;8570;52.380;4.654;2023-12-29T18:56:32;8.80;;;2.90;;
16906;SDS011;8570;52.380;4.654;2023-12-29T19:01:36;12.13;;;3.80;;
16906;SDS011;8570;52.380;4.654;2023-12-29T19:06:44;10.10;;;3.43;;
16906;SDS011;8570;52.380;4.654;2023-12-29T19:11:46;11.87;;;2.60;;
16906;SDS011;8570;52.380;4.654;2023-12-29T19:16:49;11.93;;;4.13;;
16906;SDS011;8570;52.380;4.654;2023-12-29T19:21:52;13.90;;;2.80;;
16906;SDS011;8570;52.380;4.654;2023-12-29T19:26:54;11.57;;;2.83;;
16906;SDS011;8570;52.380;4.654;2023-12-29T19:31:57;12.97;;;3.43;;
16906;SDS011;8570;52.380;4.654;2023-12-29T19:36:59;11.50;;;2.23;;
16906;SDS011;8570;52.380;4.654;2023-12-29T19:42:01;11.33;;;2.97;;
16906;SDS011;8570;52.380;4.654;2023-12-29T19:47:05;11.80;;;2.80;;
16906;SDS011;8570;52.380;4.654;2023-12-29T19:52:08;16.23;;;3.93;;
16906;SDS011;8570;52.380;4.654;2023-12-29T19:57:10;14.73;;;2.20;;
16906;SDS011;8570;52.380;4.654;2023-12-29T20:02:14;12.00;;;2.57;;
16906;SDS011;8570;52.380;4.654;2023-12-29T20:07:16;15.80;;;2.70;;
16906;SDS011;8570;52.380;4.654;2023-12-29T20:12:17;20.80;;;2.50;;
16906;SDS011;8570;52.380;4.654;2023-12-29T20:17:24;9.60;;;2.23;;
16906;SDS011;8570;52.380;4.654;2023-12-29T20:22:26;13.73;;;3.07;;
16906;SDS011;8570;52.380;4.654;2023-12-29T20:27:28;12.93;;;2.60;;
16906;SDS011;8570;52.380;4.654;2023-12-29T20:32:31;12.33;;;2.47;;
16906;SDS011;8570;52.380;4.654;2023-12-29T20:37:33;11.57;;;2.67;;
16906;SDS011;8570;52.380;4.654;2023-12-29T20:42:35;16.20;;;2.50;;
16906;SDS011;8570;52.380;4.654;2023-12-29T20:47:40;13.07;;;2.30;;
16906;SDS011;8570;52.380;4.654;2023-12-29T20:52:42;8.57;;;2.77;;
16906;SDS011;8570;52.380;4.654;2023-12-29T20:57:44;21.90;;;2.57;;
16906;SDS011;8570;52.380;4.654;2023-12-29T21:02:47;9.70;;;2.30;;
16906;SDS011;8570;52.380;4.654;2023-12-29T21:07:49;19.87;;;2.63;;
16906;SDS011;8570;52.380;4.654;2023-12-29T21:12:51;9.57;;;2.60;;
16906;SDS011;8570;52.380;4.654;2023-12-29T21:17:54;11.50;;;2.50;;
16906;SDS011;8570;52.380;4.654;2023-12-29T21:22:56;10.63;;;2.93;;
16906;SDS011;8570;52.380;4.654;2023-12-29T21:27:58;15.07;;;2.40;;
16906;SDS011;8570;52.380;4.654;2023-12-29T21:33:01;9.67;;;2.37;;
16906;SDS011;8570;52.380;4.654;2023-12-29T21:38:03;9.87;;;3.13;;
16906;SDS011;8570;52.380;4.654;2023-12-29T21:43:06;7.00;;;2.03;;
16906;SDS011;8570;52.380;4.654;2023-12-29T21:48:09;9.63;;;2.00;;
16906;SDS011;8570;52.380;4.654;2023-12-29T21:53:11;4.83;;;1.40;;
16906;SDS011;8570;52.380;4.654;2023-12-29T21:58:13;10.80;;;2.03;;
16906;SDS011;8570;52.380;4.654;2023-12-29T22:03:16;11.73;;;2.27;;
16906;SDS011;8570;52.380;4.654;2023-12-29T22:08:18;16.90;;;2.83;;
16906;SDS011;8570;52.380;4.654;2023-12-29T22:13:20;14.73;;;3.40;;
16906;SDS011;8570;52.380;4.654;2023-12-29T22:18:23;11.13;;;1.90;;
16906;SDS011;8570;52.380;4.654;2023-12-29T22:23:24;7.87;;;2.50;;
16906;SDS011;8570;52.380;4.654;2023-12-29T22:28:26;10.23;;;2.17;;
16906;SDS011;8570;52.380;4.654;2023-12-29T22:33:29;13.10;;;2.00;;
16906;SDS011;8570;52.380;4.654;2023-12-29T22:38:31;6.87;;;2.10;;
16906;SDS011;8570;52.380;4.654;2023-12-29T22:43:33;8.73;;;1.97;;
16906;SDS011;8570;52.380;4.654;2023-12-29T22:48:36;8.53;;;1.90;;
16906;SDS011;8570;52.380;4.654;2023-12-29T22:53:38;14.97;;;2.40;;
16906;SDS011;8570;52.380;4.654;2023-12-29T22:58:40;11.50;;;2.27;;
16906;SDS011;8570;52.380;4.654;2023-12-29T23:03:44;8.67;;;2.10;;
16906;SDS011;8570;52.380;4.654;2023-12-29T23:08:47;9.13;;;2.10;;
16906;SDS011;8570;52.380;4.654;2023-12-29T23:13:48;11.53;;;2.70;;
16906;SDS011;8570;52.380;4.654;2023-12-29T23:18:52;14.30;;;2.40;;
16906;SDS011;8570;52.380;4.654;2023-12-29T23:23:54;10.63;;;2.30;;
16906;SDS011;8570;52.380;4.654;2023-12-29T23:28:56;12.53;;;2.17;;
16906;SDS011;8570;52.380;4.654;2023-12-29T23:33:59;8.90;;;2.50;;
16906;SDS011;8570;52.380;4.654;2023-12-29T23:39:01;11.77;;;2.03;;
16906;SDS011;8570;52.380;4.654;2023-12-29T23:44:03;17.27;;;2.30;;
16906;SDS011;8570;52.380;4.654;2023-12-29T23:49:06;11.00;;;2.57;;
16906;SDS011;8570;52.380;4.654;2023-12-29T23:54:08;11.03;;;2.30;;
16906;SDS011;8570;52.380;4.654;2023-12-29T23:59:10;8.13;;;2.00;;
